sensor_id;sensor_type;location;lat;lon;timestamp;pressure;altitude;pressure_sealevel;temperature;humidity
63088;BME280;49173;43.164;27.786;2023-12-04T00:01:16;101116.50;;;6.66;81.55
63088;BME280;49173;43.164;27.786;2023-12-04T00:03:43;101108.63;;;6.61;81.18
63088;BME280;49173;43.164;27.786;2023-12-04T00:06:10;101098.09;;;6.57;81.00
63088;BME280;49173;43.164;27.786;2023-12-04T00:08:37;101118.56;;;6.55;80.69
63088;BME280;49173;43.164;27.786;2023-12-04T00:11:04;101114.16;;;6.54;80.78
63088;BME280;49173;43.164;27.786;2023-12-04T00:13:30;101137.22;;;6.55;81.01
63088;BME280;49173;43.164;27.786;2023-12-04T00:15:57;101129.41;;;6.49;80.67
63088;BME280;49173;43.164;27.786;2023-12-04T00:18:23;101134.03;;;6.42;81.10
63088;BME280;49173;43.164;27.786;2023-12-04T00:20:49;101145.69;;;6.38;81.10
63088;BME280;49173;43.164;27.786;2023-12-04T00:23:15;101146.50;;;6.40;81.37
63088;BME280;49173;43.164;27.786;2023-12-04T00:25:41;101174.03;;;6.41;81.31
63088;BME280;49173;43.164;27.786;2023-12-04T00:28:07;101173.91;;;6.47;81.53
63088;BME280;49173;43.164;27.786;2023-12-04T00:30:32;101182.91;;;6.43;81.79
63088;BME280;49173;43.164;27.786;2023-12-04T00:32:58;101186.31;;;6.48;81.72
63088;BME280;49173;43.164;27.786;2023-12-04T00:35:24;101196.16;;;6.46;81.90
63088;BME280;49173;43.164;27.786;2023-12-04T00:37:50;101204.13;;;6.46;81.74
63088;BME280;49173;43.164;27.786;2023-12-04T00:40:16;101208.56;;;6.47;82.01
63088;BME280;49173;43.164;27.786;2023-12-04T00:42:42;101192.50;;;6.50;81.40
63088;BME280;49173;43.164;27.786;2023-12-04T00:45:10;101170.44;;;6.43;80.91
63088;BME280;49173;43.164;27.786;2023-12-04T00:47:36;101165.31;;;6.36;81.45
63088;BME280;49173;43.164;27.786;2023-12-04T00:50:01;101173.44;;;6.29;81.49
63088;BME280;49173;43.164;27.786;2023-12-04T00:52:27;101171.72;;;6.27;81.10
63088;BME280;49173;43.164;27.786;2023-12-04T00:54:53;101172.56;;;6.29;81.54
63088;BME280;49173;43.164;27.786;2023-12-04T00:57:19;101172.53;;;6.30;81.30
63088;BME280;49173;43.164;27.786;2023-12-04T00:59:46;101175.34;;;6.24;81.01
63088;BME280;49173;43.164;27.786;2023-12-04T01:02:11;101189.66;;;6.20;81.49
63088;BME280;49173;43.164;27.786;2023-12-04T01:04:41;101184.34;;;6.20;81.58
63088;BME280;49173;43.164;27.786;2023-12-04T01:07:07;101186.19;;;6.17;81.46
63088;BME280;49173;43.164;27.786;2023-12-04T01:09:36;101182.56;;;6.21;81.14
63088;BME280;49173;43.164;27.786;2023-12-04T01:12:02;101186.19;;;6.17;80.89
63088;BME280;49173;43.164;27.786;2023-12-04T01:14:29;101165.09;;;6.08;81.70
63088;BME280;49173;43.164;27.786;2023-12-04T01:16:56;101176.59;;;6.10;81.37
63088;BME280;49173;43.164;27.786;2023-12-04T01:19:22;101183.75;;;6.08;81.05
63088;BME280;49173;43.164;27.786;2023-12-04T01:21:48;101201.66;;;6.01;80.78
63088;BME280;49173;43.164;27.786;2023-12-04T01:24:15;101196.53;;;5.92;80.66
63088;BME280;49173;43.164;27.786;2023-12-04T01:26:41;101203.72;;;5.87;80.68
63088;BME280;49173;43.164;27.786;2023-12-04T01:29:07;101211.91;;;5.77;81.36
63088;BME280;49173;43.164;27.786;2023-12-04T01:31:34;101218.06;;;5.81;81.46
63088;BME280;49173;43.164;27.786;2023-12-04T01:34:00;101216.31;;;5.80;81.30
63088;BME280;49173;43.164;27.786;2023-12-04T01:36:26;101210.94;;;5.82;81.60
63088;BME280;49173;43.164;27.786;2023-12-04T01:38:52;101199.31;;;5.86;81.79
63088;BME280;49173;43.164;27.786;2023-12-04T01:41:18;101199.44;;;5.79;81.32
63088;BME280;49173;43.164;27.786;2023-12-04T01:43:43;101212.81;;;5.76;81.24
63088;BME280;49173;43.164;27.786;2023-12-04T01:46:10;101219.88;;;5.77;80.48
63088;BME280;49173;43.164;27.786;2023-12-04T01:48:37;101220.06;;;5.70;80.71
63088;BME280;49173;43.164;27.786;2023-12-04T01:51:06;101228.34;;;5.56;80.90
63088;BME280;49173;43.164;27.786;2023-12-04T01:53:35;101245.22;;;5.55;81.02
63088;BME280;49173;43.164;27.786;2023-12-04T01:56:01;101248.88;;;5.49;81.15
63088;BME280;49173;43.164;27.786;2023-12-04T01:58:27;101243.63;;;5.46;81.24
63088;BME280;49173;43.164;27.786;2023-12-04T02:00:53;101247.41;;;5.35;81.35
63088;BME280;49173;43.164;27.786;2023-12-04T02:03:19;101254.50;;;5.36;81.49
63088;BME280;49173;43.164;27.786;2023-12-04T02:05:46;101244.78;;;5.33;81.75
63088;BME280;49173;43.164;27.786;2023-12-04T02:08:12;101244.78;;;5.33;81.84
63088;BME280;49173;43.164;27.786;2023-12-04T02:10:38;101242.06;;;5.35;82.20
63088;BME280;49173;43.164;27.786;2023-12-04T02:13:05;101239.41;;;5.35;82.05
63088;BME280;49173;43.164;27.786;2023-12-04T02:15:31;101224.56;;;5.23;82.07
63088;BME280;49173;43.164;27.786;2023-12-04T02:17:57;101232.59;;;5.21;82.43
63088;BME280;49173;43.164;27.786;2023-12-04T02:20:31;101238.75;;;5.23;82.78
63088;BME280;49173;43.164;27.786;2023-12-04T02:22:58;101246.66;;;5.27;82.27
63088;BME280;49173;43.164;27.786;2023-12-04T02:25:24;101271.53;;;5.26;82.08
63088;BME280;49173;43.164;27.786;2023-12-04T02:27:50;101278.69;;;5.23;81.67
63088;BME280;49173;43.164;27.786;2023-12-04T02:30:20;101302.66;;;5.20;81.01
63088;BME280;49173;43.164;27.786;2023-12-04T02:32:48;101309.16;;;5.04;81.00
63088;BME280;49173;43.164;27.786;2023-12-04T02:35:20;101314.69;;;4.92;81.41
63088;BME280;49173;43.164;27.786;2023-12-04T02:37:49;101327.09;;;4.91;81.60
63088;BME280;49173;43.164;27.786;2023-12-04T02:40:16;101328.88;;;4.94;80.39
63088;BME280;49173;43.164;27.786;2023-12-04T02:42:42;101341.44;;;4.83;81.51
63088;BME280;49173;43.164;27.786;2023-12-04T02:45:08;101343.28;;;4.79;81.34
63088;BME280;49173;43.164;27.786;2023-12-04T02:47:34;101353.00;;;4.82;81.82
63088;BME280;49173;43.164;27.786;2023-12-04T02:50:02;101345.03;;;4.79;81.99
63088;BME280;49173;43.164;27.786;2023-12-04T02:52:28;101347.69;;;4.79;81.92
63088;BME280;49173;43.164;27.786;2023-12-04T02:54:54;101352.22;;;4.72;82.15
63088;BME280;49173;43.164;27.786;2023-12-04T02:57:20;101356.69;;;4.72;82.38
63088;BME280;49173;43.164;27.786;2023-12-04T02:59:48;101351.28;;;4.79;82.31
63088;BME280;49173;43.164;27.786;2023-12-04T03:02:14;101362.69;;;4.84;82.65
63088;BME280;49173;43.164;27.786;2023-12-04T03:04:39;101353.94;;;4.78;83.03
63088;BME280;49173;43.164;27.786;2023-12-04T03:07:05;101361.03;;;4.77;82.97
63088;BME280;49173;43.164;27.786;2023-12-04T03:09:31;101363.69;;;4.77;83.25
63088;BME280;49173;43.164;27.786;2023-12-04T03:11:57;101362.69;;;4.84;83.47
63088;BME280;49173;43.164;27.786;2023-12-04T03:14:23;101357.47;;;4.80;83.53
63088;BME280;49173;43.164;27.786;2023-12-04T03:16:49;101344.94;;;4.85;83.67
63088;BME280;49173;43.164;27.786;2023-12-04T03:19:16;101346.81;;;4.78;83.72
63088;BME280;49173;43.164;27.786;2023-12-04T03:21:42;101349.56;;;4.74;83.88
63088;BME280;49173;43.164;27.786;2023-12-04T03:24:08;101345.94;;;4.78;83.67
63088;BME280;49173;43.164;27.786;2023-12-04T03:26:35;101352.22;;;4.72;83.13
63088;BME280;49173;43.164;27.786;2023-12-04T03:29:01;101354.09;;;4.67;83.22
63088;BME280;49173;43.164;27.786;2023-12-04T03:31:27;101359.53;;;4.58;82.91
63088;BME280;49173;43.164;27.786;2023-12-04T03:33:54;101361.44;;;4.51;83.03
63088;BME280;49173;43.164;27.786;2023-12-04T03:36:20;101372.22;;;4.39;83.53
63088;BME280;49173;43.164;27.786;2023-12-04T03:38:46;101371.31;;;4.40;83.91
63088;BME280;49173;43.164;27.786;2023-12-04T03:41:16;101381.06;;;4.39;83.29
63088;BME280;49173;43.164;27.786;2023-12-04T03:43:43;101383.78;;;4.35;83.18
63088;BME280;49173;43.164;27.786;2023-12-04T03:46:09;101385.59;;;4.33;83.63
63088;BME280;49173;43.164;27.786;2023-12-04T03:48:36;101388.16;;;4.39;83.28
63088;BME280;49173;43.164;27.786;2023-12-04T03:51:01;101387.31;;;4.35;83.62
63088;BME280;49173;43.164;27.786;2023-12-04T03:53:28;101392.66;;;4.34;84.24
63088;BME280;49173;43.164;27.786;2023-12-04T03:55:54;101389.06;;;4.38;83.60
63088;BME280;49173;43.164;27.786;2023-12-04T03:58:19;101387.34;;;4.34;83.93
63088;BME280;49173;43.164;27.786;2023-12-04T04:00:45;101397.03;;;4.38;83.66
63088;BME280;49173;43.164;27.786;2023-12-04T04:03:11;101405.91;;;4.35;83.79
63088;BME280;49173;43.164;27.786;2023-12-04T04:05:37;101416.56;;;4.37;83.75
63088;BME280;49173;43.164;27.786;2023-12-04T04:08:03;101414.78;;;4.37;83.25
63088;BME280;49173;43.164;27.786;2023-12-04T04:10:30;101405.06;;;4.33;83.76
63088;BME280;49173;43.164;27.786;2023-12-04T04:12:57;101410.28;;;4.41;83.70
63088;BME280;49173;43.164;27.786;2023-12-04T04:15:23;101410.25;;;4.44;83.64
63088;BME280;49173;43.164;27.786;2023-12-04T04:17:49;101406.69;;;4.44;83.48
63088;BME280;49173;43.164;27.786;2023-12-04T04:20:15;101398.81;;;4.36;83.43
63088;BME280;49173;43.164;27.786;2023-12-04T04:22:41;101401.56;;;4.31;83.67
63088;BME280;49173;43.164;27.786;2023-12-04T04:25:07;101399.88;;;4.24;83.73
63088;BME280;49173;43.164;27.786;2023-12-04T04:27:34;101397.31;;;4.17;84.15
63088;BME280;49173;43.164;27.786;2023-12-04T04:30:00;101406.19;;;4.14;84.15
63088;BME280;49173;43.164;27.786;2023-12-04T04:32:26;101402.66;;;4.13;84.16
63088;BME280;49173;43.164;27.786;2023-12-04T04:34:53;101404.47;;;4.08;84.60
63088;BME280;49173;43.164;27.786;2023-12-04T04:37:22;101399.19;;;4.07;84.12
63088;BME280;49173;43.164;27.786;2023-12-04T04:39:48;101401.03;;;4.02;84.11
63088;BME280;49173;43.164;27.786;2023-12-04T04:42:14;101410.81;;;3.98;84.62
63088;BME280;49173;43.164;27.786;2023-12-04T04:44:40;101409.97;;;3.92;85.04
63088;BME280;49173;43.164;27.786;2023-12-04T04:47:06;101422.34;;;3.94;85.44
63088;BME280;49173;43.164;27.786;2023-12-04T04:49:32;101416.97;;;4.02;84.58
63088;BME280;49173;43.164;27.786;2023-12-04T04:51:58;101417.94;;;3.93;85.35
63088;BME280;49173;43.164;27.786;2023-12-04T04:54:23;101423.28;;;3.90;85.46
63088;BME280;49173;43.164;27.786;2023-12-04T04:56:49;101418.81;;;3.92;85.47
63088;BME280;49173;43.164;27.786;2023-12-04T04:59:16;101430.34;;;3.91;86.08
63088;BME280;49173;43.164;27.786;2023-12-04T05:01:42;101425.91;;;3.92;86.14
63088;BME280;49173;43.164;27.786;2023-12-04T05:04:09;101430.31;;;3.96;85.99
63088;BME280;49173;43.164;27.786;2023-12-04T05:06:34;101433.88;;;3.93;85.82
63088;BME280;49173;43.164;27.786;2023-12-04T05:09:00;101426.78;;;3.95;86.12
63088;BME280;49173;43.164;27.786;2023-12-04T05:11:26;101432.94;;;3.99;86.18
63088;BME280;49173;43.164;27.786;2023-12-04T05:13:52;101434.72;;;3.97;86.28
63088;BME280;49173;43.164;27.786;2023-12-04T05:16:18;101430.28;;;3.97;86.71
63088;BME280;49173;43.164;27.786;2023-12-04T05:18:43;101442.56;;;4.07;86.00
63088;BME280;49173;43.164;27.786;2023-12-04T05:21:10;101432.88;;;4.05;86.11
63088;BME280;49173;43.164;27.786;2023-12-04T05:23:39;101447.06;;;4.02;86.58
63088;BME280;49173;43.164;27.786;2023-12-04T05:26:07;101442.63;;;4.01;86.70
63088;BME280;49173;43.164;27.786;2023-12-04T05:28:33;101436.41;;;4.04;86.68
63088;BME280;49173;43.164;27.786;2023-12-04T05:30:59;101440.88;;;4.02;86.90
63088;BME280;49173;43.164;27.786;2023-12-04T05:33:25;101445.31;;;3.98;87.13
63088;BME280;49173;43.164;27.786;2023-12-04T05:35:52;101452.38;;;4.01;87.14
63088;BME280;49173;43.164;27.786;2023-12-04T05:38:18;101447.88;;;4.07;86.26
63088;BME280;49173;43.164;27.786;2023-12-04T05:40:45;101445.31;;;3.98;86.59
63088;BME280;49173;43.164;27.786;2023-12-04T05:43:11;101437.38;;;3.97;87.19
63088;BME280;49173;43.164;27.786;2023-12-04T05:45:38;101431.16;;;3.98;87.14
63088;BME280;49173;43.164;27.786;2023-12-04T05:48:04;101442.66;;;4.00;86.98
63088;BME280;49173;43.164;27.786;2023-12-04T05:50:39;101440.81;;;4.06;87.27
63088;BME280;49173;43.164;27.786;2023-12-04T05:53:06;101449.69;;;4.05;87.14
63088;BME280;49173;43.164;27.786;2023-12-04T05:55:33;101446.97;;;4.10;86.53
63088;BME280;49173;43.164;27.786;2023-12-04T05:57:58;101445.19;;;4.12;86.76
63088;BME280;49173;43.164;27.786;2023-12-04T06:00:24;101452.22;;;4.14;86.65
63088;BME280;49173;43.164;27.786;2023-12-04T06:02:51;101448.75;;;4.11;86.39
63088;BME280;49173;43.164;27.786;2023-12-04T06:05:17;101454.94;;;4.08;86.74
63088;BME280;49173;43.164;27.786;2023-12-04T06:07:43;101464.69;;;4.09;86.73
63088;BME280;49173;43.164;27.786;2023-12-04T06:10:09;101450.53;;;4.07;86.95
63088;BME280;49173;43.164;27.786;2023-12-04T06:12:35;101448.75;;;4.11;87.04
63088;BME280;49173;43.164;27.786;2023-12-04T06:15:01;101446.06;;;4.12;86.63
63088;BME280;49173;43.164;27.786;2023-12-04T06:17:27;101453.09;;;4.15;87.01
63088;BME280;49173;43.164;27.786;2023-12-04T06:19:53;101459.34;;;4.12;86.99
63088;BME280;49173;43.164;27.786;2023-12-04T06:22:20;101463.78;;;4.12;86.88
63088;BME280;49173;43.164;27.786;2023-12-04T06:24:48;101469.88;;;4.20;86.59
63088;BME280;49173;43.164;27.786;2023-12-04T06:27:18;101480.47;;;4.25;87.00
63088;BME280;49173;43.164;27.786;2023-12-04T06:29:48;101476.06;;;4.24;86.85
63088;BME280;49173;43.164;27.786;2023-12-04T06:32:15;101481.38;;;4.24;86.69
63088;BME280;49173;43.164;27.786;2023-12-04T06:34:41;101472.53;;;4.20;86.77
63088;BME280;49173;43.164;27.786;2023-12-04T06:37:10;101484.00;;;4.25;86.55
63088;BME280;49173;43.164;27.786;2023-12-04T06:39:37;101503.50;;;4.23;86.76
63088;BME280;49173;43.164;27.786;2023-12-04T06:42:06;101508.78;;;4.26;86.54
63088;BME280;49173;43.164;27.786;2023-12-04T06:44:32;101512.31;;;4.28;86.53
63088;BME280;49173;43.164;27.786;2023-12-04T06:47:00;101502.56;;;4.27;86.08
63088;BME280;49173;43.164;27.786;2023-12-04T06:49:30;101511.41;;;4.29;86.15
63088;BME280;49173;43.164;27.786;2023-12-04T06:51:56;101514.06;;;4.29;86.00
63088;BME280;49173;43.164;27.786;2023-12-04T06:54:22;101507.06;;;4.20;86.18
63088;BME280;49173;43.164;27.786;2023-12-04T06:56:48;101503.66;;;4.10;86.87
63088;BME280;49173;43.164;27.786;2023-12-04T06:59:14;101511.53;;;4.15;86.95
63088;BME280;49173;43.164;27.786;2023-12-04T07:01:40;101513.38;;;4.08;87.08
63088;BME280;49173;43.164;27.786;2023-12-04T07:04:06;101505.41;;;4.08;87.57
63088;BME280;49173;43.164;27.786;2023-12-04T07:06:39;101501.81;;;4.14;87.27
63088;BME280;49173;43.164;27.786;2023-12-04T07:09:05;101515.16;;;4.08;87.89
63088;BME280;49173;43.164;27.786;2023-12-04T07:11:35;101520.50;;;4.09;87.86
63088;BME280;49173;43.164;27.786;2023-12-04T07:14:01;101518.69;;;4.08;88.23
63088;BME280;49173;43.164;27.786;2023-12-04T07:16:27;101523.06;;;4.14;87.77
63088;BME280;49173;43.164;27.786;2023-12-04T07:18:53;101517.75;;;4.14;87.51
63088;BME280;49173;43.164;27.786;2023-12-04T07:21:20;101505.38;;;4.13;87.95
63088;BME280;49173;43.164;27.786;2023-12-04T07:23:45;101515.13;;;4.12;87.94
63088;BME280;49173;43.164;27.786;2023-12-04T07:26:12;101529.25;;;4.14;88.73
63088;BME280;49173;43.164;27.786;2023-12-04T07:28:38;101523.94;;;4.18;88.50
63088;BME280;49173;43.164;27.786;2023-12-04T07:31:04;101527.41;;;4.23;87.84
63088;BME280;49173;43.164;27.786;2023-12-04T07:33:30;101533.63;;;4.23;88.07
63088;BME280;49173;43.164;27.786;2023-12-04T07:35:56;101537.22;;;4.19;88.09
63088;BME280;49173;43.164;27.786;2023-12-04T07:38:22;101532.75;;;4.20;88.38
63088;BME280;49173;43.164;27.786;2023-12-04T07:40:48;101534.53;;;4.19;88.35
63088;BME280;49173;43.164;27.786;2023-12-04T07:43:14;101536.28;;;4.23;88.17
63088;BME280;49173;43.164;27.786;2023-12-04T07:45:41;101541.59;;;4.22;88.30
63088;BME280;49173;43.164;27.786;2023-12-04T07:48:07;101545.09;;;4.27;88.25
63088;BME280;49173;43.164;27.786;2023-12-04T07:50:33;101535.38;;;4.26;87.71
63088;BME280;49173;43.164;27.786;2023-12-04T07:52:59;101545.16;;;4.21;88.59
63088;BME280;49173;43.164;27.786;2023-12-04T07:55:25;101539.84;;;4.21;88.47
63088;BME280;49173;43.164;27.786;2023-12-04T07:57:53;101543.34;;;4.26;88.68
63088;BME280;49173;43.164;27.786;2023-12-04T08:00:19;101532.72;;;4.23;88.67
63088;BME280;49173;43.164;27.786;2023-12-04T08:02:48;101542.47;;;4.25;88.40
63088;BME280;49173;43.164;27.786;2023-12-04T08:05:14;101538.88;;;4.31;88.57
63088;BME280;49173;43.164;27.786;2023-12-04T08:07:40;101541.47;;;4.34;87.68
63088;BME280;49173;43.164;27.786;2023-12-04T08:10:06;101544.97;;;4.39;87.65
63088;BME280;49173;43.164;27.786;2023-12-04T08:12:32;101552.00;;;4.43;87.74
63088;BME280;49173;43.164;27.786;2023-12-04T08:14:59;101548.50;;;4.39;87.66
63088;BME280;49173;43.164;27.786;2023-12-04T08:17:25;101542.34;;;4.36;88.16
63088;BME280;49173;43.164;27.786;2023-12-04T08:19:51;101551.16;;;4.39;88.37
63088;BME280;49173;43.164;27.786;2023-12-04T08:22:17;101560.91;;;4.39;88.29
63088;BME280;49173;43.164;27.786;2023-12-04T08:24:43;101558.22;;;4.45;88.43
63088;BME280;49173;43.164;27.786;2023-12-04T08:27:09;101551.16;;;4.39;88.37
63088;BME280;49173;43.164;27.786;2023-12-04T08:29:35;101552.09;;;4.34;88.02
63088;BME280;49173;43.164;27.786;2023-12-04T08:32:01;101548.56;;;4.33;88.90
63088;BME280;49173;43.164;27.786;2023-12-04T08:34:27;101547.66;;;4.37;88.63
63088;BME280;49173;43.164;27.786;2023-12-04T08:36:53;101553.78;;;4.44;88.10
63088;BME280;49173;43.164;27.786;2023-12-04T08:39:20;101547.56;;;4.45;87.87
63088;BME280;49173;43.164;27.786;2023-12-04T08:41:46;101553.78;;;4.44;87.94
63088;BME280;49173;43.164;27.786;2023-12-04T08:44:13;101548.41;;;4.49;87.82
63088;BME280;49173;43.164;27.786;2023-12-04T08:46:39;101553.69;;;4.50;87.67
63088;BME280;49173;43.164;27.786;2023-12-04T08:49:05;101553.75;;;4.47;87.69
63088;BME280;49173;43.164;27.786;2023-12-04T08:51:31;101550.16;;;4.50;87.42
63088;BME280;49173;43.164;27.786;2023-12-04T08:53:57;101557.31;;;4.46;87.22
63088;BME280;49173;43.164;27.786;2023-12-04T08:56:23;101551.97;;;4.48;87.44
63088;BME280;49173;43.164;27.786;2023-12-04T09:09:37;101560.88;;;4.45;87.04
63088;BME280;49173;43.164;27.786;2023-12-04T09:12:03;101567.97;;;4.45;87.15
63088;BME280;49173;43.164;27.786;2023-12-04T09:14:29;101558.19;;;4.47;87.18
63088;BME280;49173;43.164;27.786;2023-12-04T09:16:55;101555.47;;;4.50;87.23
63088;BME280;49173;43.164;27.786;2023-12-04T09:19:21;101552.81;;;4.51;87.41
63088;BME280;49173;43.164;27.786;2023-12-04T09:21:47;101550.16;;;4.51;87.19
63088;BME280;49173;43.164;27.786;2023-12-04T09:24:13;101551.03;;;4.50;87.09
63088;BME280;49173;43.164;27.786;2023-12-04T09:26:39;101546.59;;;4.52;87.29
63088;BME280;49173;43.164;27.786;2023-12-04T09:29:05;101548.28;;;4.58;87.17
63088;BME280;49173;43.164;27.786;2023-12-04T09:31:31;101547.47;;;4.53;86.56
63088;BME280;49173;43.164;27.786;2023-12-04T09:33:57;101540.38;;;4.53;87.02
63088;BME280;49173;43.164;27.786;2023-12-04T09:36:23;101543.84;;;4.60;87.02
63088;BME280;49173;43.164;27.786;2023-12-04T09:38:49;101539.44;;;4.57;86.80
63088;BME280;49173;43.164;27.786;2023-12-04T09:41:15;101546.53;;;4.58;86.93
63088;BME280;49173;43.164;27.786;2023-12-04T09:43:43;101542.06;;;4.60;86.51
63088;BME280;49173;43.164;27.786;2023-12-04T09:46:10;101541.19;;;4.60;86.64
63088;BME280;49173;43.164;27.786;2023-12-04T09:48:38;101541.19;;;4.61;86.95
63088;BME280;49173;43.164;27.786;2023-12-04T09:51:07;101534.97;;;4.61;86.95
63088;BME280;49173;43.164;27.786;2023-12-04T09:53:35;101540.31;;;4.58;87.10
63088;BME280;49173;43.164;27.786;2023-12-04T09:56:03;101530.59;;;4.57;86.80
63088;BME280;49173;43.164;27.786;2023-12-04T09:58:31;101530.53;;;4.61;87.20
63088;BME280;49173;43.164;27.786;2023-12-04T10:01:01;101527.91;;;4.60;86.52
63088;BME280;49173;43.164;27.786;2023-12-04T10:03:28;101527.91;;;4.60;86.48
63088;BME280;49173;43.164;27.786;2023-12-04T10:05:55;101530.59;;;4.58;86.40
63088;BME280;49173;43.164;27.786;2023-12-04T10:08:22;101533.16;;;4.63;86.39
63088;BME280;49173;43.164;27.786;2023-12-04T10:10:48;101521.66;;;4.65;86.32
63088;BME280;49173;43.164;27.786;2023-12-04T10:13:14;101523.41;;;4.63;86.38
63088;BME280;49173;43.164;27.786;2023-12-04T10:15:50;101516.41;;;4.59;86.04
63088;BME280;49173;43.164;27.786;2023-12-04T10:18:33;101525.13;;;4.69;86.67
63088;BME280;49173;43.164;27.786;2023-12-04T10:20:59;101528.63;;;4.74;86.61
63088;BME280;49173;43.164;27.786;2023-12-04T10:23:39;101521.47;;;4.78;86.12
63088;BME280;49173;43.164;27.786;2023-12-04T10:26:06;101522.38;;;4.77;85.79
63088;BME280;49173;43.164;27.786;2023-12-04T10:28:34;101525.88;;;4.79;86.61
63088;BME280;49173;43.164;27.786;2023-12-04T10:31:00;101529.44;;;4.79;86.14
63088;BME280;49173;43.164;27.786;2023-12-04T10:33:28;101528.53;;;4.79;86.09
63088;BME280;49173;43.164;27.786;2023-12-04T10:35:55;101525.09;;;4.74;85.49
63088;BME280;49173;43.164;27.786;2023-12-04T10:38:21;101533.06;;;4.74;85.93
63088;BME280;49173;43.164;27.786;2023-12-04T10:40:48;101527.81;;;4.67;85.82
63088;BME280;49173;43.164;27.786;2023-12-04T10:43:20;101547.31;;;4.66;86.74
63088;BME280;49173;43.164;27.786;2023-12-04T10:45:47;101539.34;;;4.66;86.06
63088;BME280;49173;43.164;27.786;2023-12-04T10:48:16;101536.63;;;4.71;85.86
63088;BME280;49173;43.164;27.786;2023-12-04T10:50:47;101530.47;;;4.67;86.29
63088;BME280;49173;43.164;27.786;2023-12-04T10:53:15;101535.75;;;4.69;86.31
63088;BME280;49173;43.164;27.786;2023-12-04T10:55:42;101538.41;;;4.69;86.19
63088;BME280;49173;43.164;27.786;2023-12-04T10:58:11;101529.50;;;4.72;86.70
63088;BME280;49173;43.164;27.786;2023-12-04T11:00:45;101525.09;;;4.71;86.87
63088;BME280;49173;43.164;27.786;2023-12-04T11:03:25;101520.66;;;4.73;87.39
63088;BME280;49173;43.164;27.786;2023-12-04T11:06:00;101529.44;;;4.79;87.24
63088;BME280;49173;43.164;27.786;2023-12-04T11:08:29;101526.78;;;4.78;86.73
63088;BME280;49173;43.164;27.786;2023-12-04T11:11:05;101524.13;;;4.79;87.02
63088;BME280;49173;43.164;27.786;2023-12-04T11:13:40;101520.50;;;4.85;87.16
63088;BME280;49173;43.164;27.786;2023-12-04T11:16:23;101523.16;;;4.85;87.42
63088;BME280;49173;43.164;27.786;2023-12-04T11:19:07;101515.16;;;4.88;87.59
63088;BME280;49173;43.164;27.786;2023-12-04T11:21:37;101517.72;;;4.94;87.02
63088;BME280;49173;43.164;27.786;2023-12-04T11:24:05;101508.88;;;4.92;86.33
63088;BME280;49173;43.164;27.786;2023-12-04T11:26:33;101505.31;;;4.94;86.16
63088;BME280;49173;43.164;27.786;2023-12-04T11:29:00;101513.28;;;4.93;85.79
63088;BME280;49173;43.164;27.786;2023-12-04T11:31:26;101516.84;;;4.93;86.13
63088;BME280;49173;43.164;27.786;2023-12-04T11:33:52;101514.13;;;4.96;85.94
63088;BME280;49173;43.164;27.786;2023-12-04T11:36:21;101515.84;;;5.02;85.54
63088;BME280;49173;43.164;27.786;2023-12-04T11:38:48;101508.75;;;5.00;85.34
63088;BME280;49173;43.164;27.786;2023-12-04T11:41:19;101504.31;;;5.02;84.84
63088;BME280;49173;43.164;27.786;2023-12-04T11:43:46;101518.47;;;5.04;84.71
63088;BME280;49173;43.164;27.786;2023-12-04T11:46:14;101514.91;;;5.05;84.51
63088;BME280;49173;43.164;27.786;2023-12-04T11:48:47;101510.47;;;5.05;84.16
63088;BME280;49173;43.164;27.786;2023-12-04T11:51:44;101503.38;;;5.04;84.74
63088;BME280;49173;43.164;27.786;2023-12-04T11:54:01;101508.66;;;5.07;84.41
63088;BME280;49173;43.164;27.786;2023-12-04T11:56:30;101502.50;;;5.04;84.47
63088;BME280;49173;43.164;27.786;2023-12-04T11:59:04;101500.78;;;5.01;83.92
63088;BME280;49173;43.164;27.786;2023-12-04T12:01:36;101502.59;;;4.97;83.80
63088;BME280;49173;43.164;27.786;2023-12-04T12:04:06;101503.47;;;4.98;83.99
63088;BME280;49173;43.164;27.786;2023-12-04T12:06:32;101499.97;;;4.96;84.06
63088;BME280;49173;43.164;27.786;2023-12-04T12:08:59;101500.78;;;5.00;84.08
63088;BME280;49173;43.164;27.786;2023-12-04T12:11:26;101498.13;;;5.01;84.05
63088;BME280;49173;43.164;27.786;2023-12-04T12:13:53;101504.31;;;5.00;83.83
63088;BME280;49173;43.164;27.786;2023-12-04T12:16:19;101506.09;;;5.00;83.73
63088;BME280;49173;43.164;27.786;2023-12-04T12:18:46;101506.97;;;5.00;83.96
63088;BME280;49173;43.164;27.786;2023-12-04T12:21:12;101508.72;;;5.04;84.40
63088;BME280;49173;43.164;27.786;2023-12-04T12:23:38;101507.78;;;5.07;84.46
63088;BME280;49173;43.164;27.786;2023-12-04T12:26:05;101505.13;;;5.08;84.77
63088;BME280;49173;43.164;27.786;2023-12-04T12:28:31;101499.78;;;5.08;84.45
63088;BME280;49173;43.164;27.786;2023-12-04T12:31:02;101501.56;;;5.09;84.17
63088;BME280;49173;43.164;27.786;2023-12-04T12:33:28;101500.59;;;5.13;84.35
63088;BME280;49173;43.164;27.786;2023-12-04T12:35:56;101502.41;;;5.11;84.72
63088;BME280;49173;43.164;27.786;2023-12-04T12:38:22;101505.06;;;5.11;84.64
63088;BME280;49173;43.164;27.786;2023-12-04T12:40:48;101504.13;;;5.14;84.51
63088;BME280;49173;43.164;27.786;2023-12-04T12:43:15;101511.28;;;5.10;84.35
63088;BME280;49173;43.164;27.786;2023-12-04T12:45:42;101514.00;;;5.06;84.01
63088;BME280;49173;43.164;27.786;2023-12-04T12:48:16;101506.91;;;5.06;83.82
63088;BME280;49173;43.164;27.786;2023-12-04T12:50:43;101506.00;;;5.07;83.55
63088;BME280;49173;43.164;27.786;2023-12-04T12:53:12;101513.97;;;5.07;83.41
63088;BME280;49173;43.164;27.786;2023-12-04T12:55:41;101505.13;;;5.08;83.61
63088;BME280;49173;43.164;27.786;2023-12-04T12:58:10;101504.25;;;5.06;83.36
63088;BME280;49173;43.164;27.786;2023-12-04T13:00:41;101509.53;;;5.09;83.78